Time;durP1;ratioP1;P1;durP2;ratioP2;P2;SDS_P1;SDS_P2;PMS_P1;PMS_P2;Temp;Humidity;BMP_temperature;BMP_pressure;BME280_temperature;BME280_humidity;BME280_pressure;Samples;Min_cycle;Max_cycle;Signal;HPM_P1;HPM_P2
2024/03/10 00:00:14;;;;;;;6.50;5.90;;;9.40;99.90;;;;;;5043669;28;20460;-71
2024/03/10 00:02:43;;;;;;;5.83;5.23;;;9.40;99.90;;;;;;5046061;28;20455;-71
2024/03/10 00:05:13;;;;;;;11.53;5.87;;;9.40;99.90;;;;;;5051413;28;20424;-71
2024/03/10 00:07:40;;;;;;;6.20;5.30;;;9.50;99.90;;;;;;5050808;28;20504;-71
2024/03/10 00:10:07;;;;;;;6.03;5.13;;;9.40;99.90;;;;;;5048230;28;20433;-70
2024/03/10 00:12:32;;;;;;;6.33;5.73;;;9.40;99.90;;;;;;5039708;28;20447;-71
2024/03/10 00:14:58;;;;;;;7.50;5.60;;;9.40;99.90;;;;;;5038986;28;20461;-71
2024/03/10 00:17:23;;;;;;;5.43;4.93;;;9.40;99.90;;;;;;5042903;28;20227;-71
2024/03/10 00:19:49;;;;;;;6.50;5.37;;;9.40;99.90;;;;;;5051167;28;20571;-71
2024/03/10 00:22:14;;;;;;;6.10;5.10;;;9.40;99.90;;;;;;5041771;28;20221;-70
2024/03/10 00:24:42;;;;;;;5.93;5.33;;;9.40;99.90;;;;;;5042287;28;20177;-71
2024/03/10 00:27:08;;;;;;;7.00;5.80;;;9.40;99.90;;;;;;5042357;28;20635;-71
2024/03/10 00:29:34;;;;;;;7.20;5.90;;;9.40;99.90;;;;;;5043208;28;20428;-70
2024/03/10 00:31:59;;;;;;;6.37;5.60;;;9.30;99.90;;;;;;5052001;28;20193;-71
2024/03/10 00:34:25;;;;;;;8.00;6.30;;;9.30;99.90;;;;;;5054783;28;21111;-71
2024/03/10 00:36:50;;;;;;;6.73;5.80;;;9.20;99.90;;;;;;5054021;28;20227;-70
2024/03/10 00:39:16;;;;;;;6.40;5.90;;;9.20;99.90;;;;;;5043325;28;20263;-70
2024/03/10 00:41:41;;;;;;;6.70;6.10;;;9.20;99.90;;;;;;5041840;28;20686;-71
2024/03/10 00:44:07;;;;;;;6.93;6.23;;;9.10;99.90;;;;;;5037543;28;20206;-71
2024/03/10 00:46:32;;;;;;;6.50;5.90;;;9.10;99.90;;;;;;5045576;28;20185;-70
2024/03/10 00:48:58;;;;;;;6.87;6.03;;;9.10;99.90;;;;;;5054575;28;20690;-71
2024/03/10 00:51:24;;;;;;;6.83;6.13;;;9.20;99.90;;;;;;5049621;28;20202;-71
2024/03/10 00:53:50;;;;;;;7.07;6.37;;;9.10;99.90;;;;;;5042765;28;20261;-71
2024/03/10 00:56:19;;;;;;;6.27;5.70;;;9.10;99.90;;;;;;5048274;28;20534;-72
2024/03/10 00:58:45;;;;;;;7.00;6.27;;;9.20;99.90;;;;;;5044803;28;20182;-71
2024/03/10 01:01:11;;;;;;;7.50;6.63;;;9.20;99.90;;;;;;5044206;28;21076;-71
2024/03/10 01:03:40;;;;;;;8.10;7.00;;;9.10;99.90;;;;;;5054236;28;20451;-71
2024/03/10 01:06:06;;;;;;;7.23;6.40;;;9.00;99.90;;;;;;5046263;28;20200;-71
2024/03/10 01:08:32;;;;;;;6.90;6.20;;;9.00;99.90;;;;;;5044660;28;20435;-71
2024/03/10 01:10:57;;;;;;;7.77;6.83;;;9.00;99.90;;;;;;5041777;28;20441;-71
2024/03/10 01:13:23;;;;;;;7.80;6.07;;;9.00;99.90;;;;;;5042639;28;20264;-72
2024/03/10 01:15:50;;;;;;;7.37;6.67;;;8.90;99.90;;;;;;5042320;28;20185;-71
2024/03/10 01:18:16;;;;;;;8.50;7.00;;;8.90;99.90;;;;;;5052724;28;20181;-71
2024/03/10 01:20:42;;;;;;;11.33;9.10;;;8.90;99.90;;;;;;5044857;28;20466;-71
2024/03/10 01:23:07;;;;;;;7.20;6.50;;;8.90;99.90;;;;;;5045382;28;20830;-70
2024/03/10 01:25:33;;;;;;;9.63;6.37;;;8.90;99.90;;;;;;5047650;28;20243;-71
2024/03/10 01:27:59;;;;;;;12.03;6.67;;;8.90;99.90;;;;;;5044820;28;20174;-71
2024/03/10 01:30:24;;;;;;;7.20;6.50;;;8.90;99.90;;;;;;5053753;28;20662;-71
2024/03/10 01:32:50;;;;;;;10.30;7.27;;;8.90;99.90;;;;;;5053658;28;20197;-71
2024/03/10 01:35:15;;;;;;;8.80;7.90;;;8.90;99.90;;;;;;5042310;28;20182;-71
2024/03/10 01:37:41;;;;;;;8.00;6.67;;;8.80;99.90;;;;;;5046752;28;20169;-71
2024/03/10 01:40:09;;;;;;;7.80;7.00;;;8.80;99.90;;;;;;5042783;28;20597;-71
2024/03/10 01:42:35;;;;;;;8.40;7.60;;;8.80;99.90;;;;;;5045203;28;20543;-70
2024/03/10 01:45:01;;;;;;;7.87;7.00;;;8.80;99.90;;;;;;5053448;28;20456;-70
2024/03/10 01:47:27;;;;;;;8.90;7.10;;;8.80;99.90;;;;;;5047808;28;20221;-70
2024/03/10 01:49:53;;;;;;;9.43;7.90;;;8.80;99.90;;;;;;5041717;28;20417;-71
2024/03/10 01:52:19;;;;;;;7.20;6.10;;;8.80;99.90;;;;;;5053172;28;20439;-71
2024/03/10 01:54:45;;;;;;;8.10;7.33;;;8.90;99.90;;;;;;5049402;28;20441;-71
2024/03/10 01:57:11;;;;;;;7.60;6.17;;;8.90;99.90;;;;;;5042922;28;20961;-71
2024/03/10 01:59:38;;;;;;;7.83;7.13;;;8.90;99.90;;;;;;5053160;28;20412;-71
2024/03/10 02:02:04;;;;;;;7.90;6.07;;;8.90;99.90;;;;;;5045568;28;20495;-71
2024/03/10 02:04:31;;;;;;;6.70;5.97;;;8.90;99.90;;;;;;5038884;28;20433;-71
2024/03/10 02:06:57;;;;;;;9.33;6.60;;;8.90;99.90;;;;;;5043722;28;20840;-71
2024/03/10 02:09:22;;;;;;;10.07;7.50;;;9.00;99.90;;;;;;5037061;28;20440;-71
2024/03/10 02:11:48;;;;;;;8.10;7.07;;;9.00;99.90;;;;;;5044628;28;20933;-72
2024/03/10 02:14:15;;;;;;;7.00;6.30;;;8.90;99.90;;;;;;5052844;28;20201;-71
2024/03/10 02:16:40;;;;;;;6.00;5.50;;;8.90;99.90;;;;;;5043715;28;20518;-71
2024/03/10 02:19:06;;;;;;;6.60;6.00;;;8.90;99.90;;;;;;5036604;28;20599;-71
2024/03/10 02:21:32;;;;;;;8.70;7.40;;;8.90;99.90;;;;;;5042781;28;20215;-71
2024/03/10 02:24:04;;;;;;;7.03;6.33;;;8.90;99.90;;;;;;5040748;28;20261;-71
2024/03/10 02:26:36;;;;;;;6.30;5.70;;;9.00;99.90;;;;;;5043637;28;20416;-71
2024/03/10 02:29:15;;;;;;;7.60;6.83;;;8.90;99.90;;;;;;5034903;28;20925;-72
2024/03/10 02:48:16;;;;;;;5.63;5.13;;;8.90;99.90;;;;;;5051271;28;20785;-72
2024/03/10 02:50:42;;;;;;;6.97;6.30;;;8.80;99.90;;;;;;5043431;28;20432;-71
2024/03/10 02:53:07;;;;;;;8.10;5.40;;;8.70;99.90;;;;;;5044278;28;20281;-71
2024/03/10 02:55:33;;;;;;;6.63;6.03;;;8.70;99.90;;;;;;5044437;28;20178;-72
2024/03/10 02:58:03;;;;;;;8.37;6.00;;;8.60;99.90;;;;;;5021449;28;20639;-70
2024/03/10 03:00:30;;;;;;;6.47;5.93;;;8.60;99.90;;;;;;5050467;28;20456;-71
2024/03/10 03:02:55;;;;;;;7.43;6.10;;;8.60;99.90;;;;;;5058213;28;20442;-71
2024/03/10 03:05:21;;;;;;;7.63;6.53;;;8.60;99.90;;;;;;5057054;28;20416;-72
2024/03/10 03:07:48;;;;;;;7.30;6.60;;;8.60;99.90;;;;;;5048245;28;20179;-71
2024/03/10 03:10:14;;;;;;;6.97;6.17;;;8.50;99.90;;;;;;5050971;28;20189;-70
2024/03/10 03:12:41;;;;;;;7.13;6.10;;;8.40;99.90;;;;;;5049278;28;20496;-71
2024/03/10 03:15:09;;;;;;;7.10;5.60;;;8.30;99.90;;;;;;5041276;28;20437;-71
2024/03/10 03:17:35;;;;;;;7.93;5.77;;;8.30;99.90;;;;;;5049638;28;20432;-70
2024/03/10 03:20:04;;;;;;;6.67;5.40;;;8.30;99.90;;;;;;5036000;28;20431;-70
2024/03/10 03:22:29;;;;;;;7.07;5.87;;;8.30;99.90;;;;;;5037479;28;20499;-71
2024/03/10 03:24:55;;;;;;;6.90;5.60;;;8.30;99.90;;;;;;5034677;28;20475;-72
2024/03/10 03:27:20;;;;;;;6.97;5.53;;;8.30;99.90;;;;;;5049403;28;20316;-71
2024/03/10 03:29:46;;;;;;;6.17;5.57;;;8.30;99.90;;;;;;5036562;28;20640;-71
2024/03/10 03:32:11;;;;;;;6.33;5.73;;;8.30;99.90;;;;;;5032024;28;20198;-70
2024/03/10 03:34:38;;;;;;;6.63;5.80;;;8.20;99.90;;;;;;5031954;28;20197;-70
2024/03/10 03:37:03;;;;;;;6.00;5.40;;;8.10;99.90;;;;;;5031719;28;20719;-71
2024/03/10 03:39:29;;;;;;;7.30;6.10;;;8.10;99.90;;;;;;5037765;28;20452;-71
2024/03/10 03:41:54;;;;;;;7.27;6.57;;;8.10;99.90;;;;;;5039772;28;20633;-71
2024/03/10 03:44:20;;;;;;;7.13;6.43;;;8.10;99.90;;;;;;5037518;28;20205;-70
2024/03/10 03:46:45;;;;;;;6.67;6.10;;;8.10;99.90;;;;;;5042745;28;20205;-71
2024/03/10 03:49:11;;;;;;;7.00;6.23;;;8.10;99.90;;;;;;5051693;28;20245;-71
2024/03/10 03:51:36;;;;;;;6.80;6.10;;;8.10;99.90;;;;;;5044822;28;20212;-70
2024/03/10 03:54:05;;;;;;;6.13;5.63;;;8.00;99.90;;;;;;5023026;28;20197;-71
2024/03/10 03:56:31;;;;;;;7.53;6.70;;;8.00;99.90;;;;;;5040563;28;20540;-71
2024/03/10 03:58:57;;;;;;;7.70;6.57;;;8.00;99.90;;;;;;5042366;28;20844;-71
2024/03/10 04:01:22;;;;;;;7.97;6.00;;;7.90;99.90;;;;;;5046977;28;20514;-71
2024/03/10 04:03:48;;;;;;;6.93;5.73;;;8.00;99.90;;;;;;5055459;28;20536;-71
2024/03/10 04:06:14;;;;;;;7.47;6.00;;;8.00;99.90;;;;;;5042410;28;20186;-71
2024/03/10 04:08:40;;;;;;;6.73;6.00;;;7.90;99.90;;;;;;5042217;28;20659;-71
2024/03/10 04:11:06;;;;;;;9.50;6.10;;;7.90;99.90;;;;;;5048443;28;20439;-71
2024/03/10 04:13:32;;;;;;;6.17;5.57;;;7.80;99.90;;;;;;5042590;28;20485;-71
2024/03/10 04:15:57;;;;;;;7.73;6.23;;;7.80;99.90;;;;;;5052102;28;20181;-71
2024/03/10 04:18:23;;;;;;;9.87;7.03;;;7.80;99.90;;;;;;5054596;28;20666;-71
2024/03/10 04:20:48;;;;;;;7.40;5.60;;;7.70;99.90;;;;;;5055131;28;20618;-70
2024/03/10 04:23:14;;;;;;;6.23;5.63;;;7.60;99.90;;;;;;5042897;28;20267;-71
2024/03/10 04:25:40;;;;;;;7.03;5.93;;;7.40;99.90;;;;;;5042525;28;20616;-70
2024/03/10 04:28:05;;;;;;;6.50;5.90;;;7.40;99.90;;;;;;5043918;28;20170;-71
2024/03/10 04:30:31;;;;;;;6.90;6.23;;;7.40;99.90;;;;;;5055074;28;20427;-71
2024/03/10 04:32:57;;;;;;;6.50;5.50;;;7.30;99.90;;;;;;5054809;28;20533;-71
2024/03/10 04:35:24;;;;;;;9.03;5.50;;;7.30;99.90;;;;;;5048680;28;20186;-70
2024/03/10 04:37:49;;;;;;;6.63;5.20;;;7.30;99.90;;;;;;5042295;28;20527;-71
2024/03/10 04:40:18;;;;;;;5.60;5.10;;;7.30;99.90;;;;;;5052463;28;20447;-71
2024/03/10 04:42:43;;;;;;;6.67;6.07;;;7.30;99.90;;;;;;5037980;28;20222;-71
2024/03/10 04:45:12;;;;;;;7.10;5.30;;;7.30;99.90;;;;;;5050289;28;20451;-70
2024/03/10 04:47:38;;;;;;;6.43;5.60;;;7.30;99.90;;;;;;5042182;28;20544;-71
2024/03/10 04:50:04;;;;;;;6.60;6.00;;;7.30;99.90;;;;;;5044098;28;20437;-71
2024/03/10 04:52:30;;;;;;;6.53;5.93;;;7.30;99.90;;;;;;5046094;28;20584;-70
2024/03/10 04:54:56;;;;;;;6.87;6.20;;;7.40;99.90;;;;;;5054487;28;20408;-71
2024/03/10 04:57:22;;;;;;;6.50;5.87;;;7.40;99.90;;;;;;5043750;28;20440;-70
2024/03/10 04:59:48;;;;;;;7.70;6.17;;;7.40;99.90;;;;;;5046219;28;20173;-71
2024/03/10 05:02:14;;;;;;;7.07;6.40;;;7.30;99.90;;;;;;5042263;28;20563;-70
2024/03/10 05:04:39;;;;;;;8.87;6.70;;;7.30;99.90;;;;;;5041726;28;20553;-71
2024/03/10 05:07:05;;;;;;;6.93;5.87;;;7.20;99.90;;;;;;5051483;28;20181;-71
2024/03/10 05:09:30;;;;;;;7.13;6.43;;;7.20;99.90;;;;;;5054219;28;20603;-70
2024/03/10 05:11:56;;;;;;;7.13;6.50;;;7.30;99.90;;;;;;5040993;28;20209;-71
2024/03/10 05:14:22;;;;;;;7.60;6.13;;;7.30;99.90;;;;;;5054223;28;20635;-70
2024/03/10 05:16:47;;;;;;;6.33;5.67;;;7.40;99.90;;;;;;5053457;28;20234;-71
2024/03/10 05:19:13;;;;;;;6.03;5.50;;;7.40;99.90;;;;;;5043229;28;20190;-70
2024/03/10 05:21:38;;;;;;;6.93;5.47;;;7.40;99.90;;;;;;5042164;28;20224;-71
2024/03/10 05:24:06;;;;;;;6.90;5.57;;;7.40;99.90;;;;;;5043827;28;20243;-70
2024/03/10 05:26:32;;;;;;;6.50;5.50;;;7.40;99.90;;;;;;5037704;28;20539;-71
2024/03/10 05:28:57;;;;;;;5.93;5.43;;;7.40;99.90;;;;;;5045471;28;20412;-71
2024/03/10 05:31:30;;;;;;;6.27;5.10;;;7.40;99.90;;;;;;5048441;28;20209;-71
2024/03/10 05:33:59;;;;;;;5.73;4.30;;;7.30;99.90;;;;;;5042054;28;20601;-71
2024/03/10 05:36:28;;;;;;;7.23;4.40;;;7.20;99.90;;;;;;5033320;28;20465;-70
2024/03/10 05:38:54;;;;;;;4.33;3.93;;;7.20;99.90;;;;;;5034501;28;20960;-70
2024/03/10 05:41:19;;;;;;;3.40;3.20;;;7.20;99.90;;;;;;5044269;28;20471;-70
2024/03/10 05:43:46;;;;;;;3.73;3.43;;;7.30;99.90;;;;;;5045219;28;20572;-70
2024/03/10 05:46:15;;;;;;;3.37;3.07;;;7.30;99.90;;;;;;5045181;28;20540;-71
2024/03/10 05:48:41;;;;;;;4.23;3.70;;;7.40;99.90;;;;;;5043841;28;20431;-70
2024/03/10 05:51:13;;;;;;;4.00;3.60;;;7.40;99.90;;;;;;5045041;28;20881;-70
2024/03/10 05:53:40;;;;;;;3.73;3.30;;;7.40;99.90;;;;;;5053490;28;20947;-70
2024/03/10 05:56:07;;;;;;;3.17;2.97;;;7.40;99.90;;;;;;5048010;28;20873;-70
2024/03/10 05:58:34;;;;;;;3.60;3.30;;;7.40;99.90;;;;;;5044229;28;20844;-71
2024/03/10 06:01:00;;;;;;;3.77;3.40;;;7.40;99.90;;;;;;5042984;28;21003;-71
2024/03/10 06:03:26;;;;;;;4.17;2.90;;;7.40;99.90;;;;;;5040979;28;20489;-71
2024/03/10 06:05:51;;;;;;;4.77;3.30;;;7.40;99.90;;;;;;5027047;28;20416;-70
2024/03/10 06:08:17;;;;;;;3.33;3.10;;;7.40;99.90;;;;;;5048099;28;20184;-71
2024/03/10 06:10:42;;;;;;;4.90;3.20;;;7.40;99.90;;;;;;5043061;28;20538;-70
2024/03/10 06:13:08;;;;;;;3.93;3.53;;;7.40;99.90;;;;;;5040568;28;20194;-71
2024/03/10 06:15:33;;;;;;;3.80;3.50;;;7.40;99.90;;;;;;5023445;28;20167;-70
2024/03/10 06:18:05;;;;;;;4.03;3.40;;;7.40;99.90;;;;;;5032290;28;20186;-71
2024/03/10 06:25:59;;;;;;;6.40;5.30;;;7.30;99.90;;;;;;5032199;28;20495;-67
2024/03/10 06:28:25;;;;;;;4.03;3.53;;;7.40;99.90;;;;;;5030809;28;20433;-67
2024/03/10 06:30:50;;;;;;;3.20;2.90;;;7.40;99.90;;;;;;5040136;28;20186;-67
2024/03/10 06:33:16;;;;;;;6.30;3.57;;;7.50;99.90;;;;;;5043775;28;20202;-67
2024/03/10 06:35:42;;;;;;;4.63;2.97;;;7.40;99.90;;;;;;5052654;28;20201;-67
2024/03/10 06:38:08;;;;;;;4.10;3.43;;;7.40;99.90;;;;;;5051939;28;20827;-67
2024/03/10 06:40:33;;;;;;;3.47;2.83;;;7.40;99.90;;;;;;5047503;28;20214;-67
2024/03/10 06:43:00;;;;;;;3.73;3.13;;;7.40;99.90;;;;;;5042847;28;20224;-65
2024/03/10 06:45:26;;;;;;;3.47;3.17;;;7.50;99.90;;;;;;5039935;28;20761;-66
2024/03/10 06:47:51;;;;;;;4.27;3.13;;;7.50;99.90;;;;;;5039031;28;20520;-66
2024/03/10 06:50:17;;;;;;;4.73;3.83;;;7.60;99.90;;;;;;5032463;28;20538;-68
2024/03/10 06:52:45;;;;;;;4.60;3.67;;;7.50;99.90;;;;;;5032327;28;20267;-67
2024/03/10 06:55:12;;;;;;;3.63;3.33;;;7.60;99.90;;;;;;5033747;28;20174;-65
2024/03/10 06:57:38;;;;;;;6.13;3.77;;;7.60;99.90;;;;;;5036750;28;20429;-65
2024/03/10 07:00:08;;;;;;;4.33;3.93;;;7.70;99.90;;;;;;5049777;28;20423;-65
2024/03/10 07:02:34;;;;;;;5.83;4.00;;;7.70;99.90;;;;;;5052048;28;20579;-65
2024/03/10 07:05:02;;;;;;;4.60;3.73;;;7.70;99.90;;;;;;5042045;28;20428;-67
2024/03/10 07:07:29;;;;;;;4.60;3.97;;;7.70;99.90;;;;;;5039580;28;20795;-68
2024/03/10 07:09:55;;;;;;;6.50;4.20;;;7.60;99.90;;;;;;5039662;28;20431;-65
2024/03/10 07:12:23;;;;;;;10.37;5.43;;;7.60;99.90;;;;;;5034516;28;20586;-68
2024/03/10 07:14:48;;;;;;;5.47;4.97;;;7.60;99.90;;;;;;5036338;28;20914;-67
2024/03/10 07:17:14;;;;;;;3.60;3.30;;;7.70;99.90;;;;;;5031544;28;20491;-67
2024/03/10 07:19:41;;;;;;;3.90;3.47;;;7.70;99.90;;;;;;5032096;28;20174;-65
2024/03/10 07:22:08;;;;;;;4.17;3.50;;;7.70;99.90;;;;;;5031000;28;20202;-66
2024/03/10 07:24:34;;;;;;;4.30;3.50;;;7.70;99.90;;;;;;5038100;28;20429;-65
2024/03/10 07:26:59;;;;;;;5.23;4.60;;;7.70;99.90;;;;;;5039449;28;20803;-65
2024/03/10 07:29:25;;;;;;;5.00;4.40;;;7.70;99.90;;;;;;5039386;28;20841;-66
2024/03/10 07:31:50;;;;;;;4.27;3.87;;;7.80;99.90;;;;;;5031898;28;20202;-66
2024/03/10 07:34:16;;;;;;;5.23;4.40;;;7.90;99.90;;;;;;5032058;28;20181;-66
2024/03/10 07:36:42;;;;;;;3.93;3.30;;;8.00;99.90;;;;;;5031747;28;20183;-65
2024/03/10 07:39:07;;;;;;;3.50;3.20;;;8.10;99.90;;;;;;5045505;28;20436;-66
2024/03/10 07:41:33;;;;;;;5.47;4.10;;;8.10;99.90;;;;;;5040189;28;20204;-66
2024/03/10 07:43:59;;;;;;;5.77;5.13;;;8.30;99.90;;;;;;5044230;28;20174;-66
2024/03/10 07:46:25;;;;;;;6.70;6.00;;;8.40;99.90;;;;;;5035415;28;20175;-66
2024/03/10 07:48:51;;;;;;;6.57;4.50;;;8.50;99.90;;;;;;5035867;28;20224;-66
2024/03/10 07:51:17;;;;;;;5.37;4.87;;;8.80;99.90;;;;;;5036236;28;21203;-66
2024/03/10 07:53:43;;;;;;;4.63;4.23;;;8.90;99.90;;;;;;5040097;28;20534;-66
2024/03/10 07:56:09;;;;;;;4.70;4.30;;;9.20;99.90;;;;;;5043633;28;20272;-66
2024/03/10 07:58:34;;;;;;;4.77;4.37;;;9.30;99.90;;;;;;5046595;28;20177;-66
2024/03/10 08:01:00;;;;;;;5.30;4.63;;;9.50;99.90;;;;;;5055409;28;20258;-66
2024/03/10 08:03:26;;;;;;;5.00;4.60;;;9.80;99.90;;;;;;5045643;28;20585;-66
2024/03/10 08:05:51;;;;;;;5.43;4.60;;;10.10;99.90;;;;;;5043134;28;20173;-66
2024/03/10 08:08:17;;;;;;;4.83;4.40;;;10.20;99.90;;;;;;5035201;28;20166;-66
2024/03/10 08:10:43;;;;;;;6.97;6.27;;;10.40;99.90;;;;;;5040504;28;20205;-66
2024/03/10 08:13:08;;;;;;;5.67;5.17;;;10.50;99.90;;;;;;5035322;28;20186;-66
2024/03/10 08:15:34;;;;;;;5.97;5.37;;;10.50;99.90;;;;;;5034551;28;20417;-66
2024/03/10 08:18:00;;;;;;;6.50;4.87;;;10.70;99.90;;;;;;5042804;28;20200;-65
2024/03/10 08:20:25;;;;;;;5.60;5.00;;;10.80;99.90;;;;;;5046198;28;20979;-66
2024/03/10 08:22:54;;;;;;;5.83;5.33;;;11.00;99.90;;;;;;5045362;28;20296;-66
2024/03/10 08:25:20;;;;;;;4.83;4.40;;;11.10;99.90;;;;;;5038681;28;20523;-66
2024/03/10 08:27:49;;;;;;;4.57;4.13;;;11.10;99.90;;;;;;5050191;28;20433;-66
2024/03/10 08:30:15;;;;;;;4.70;4.23;;;11.10;99.90;;;;;;5043844;28;20322;-66
2024/03/10 08:32:41;;;;;;;5.77;5.20;;;11.20;99.90;;;;;;5046190;28;20461;-65
2024/03/10 08:35:07;;;;;;;5.83;5.30;;;11.20;99.90;;;;;;5036580;28;20508;-66
2024/03/10 08:37:37;;;;;;;5.40;4.60;;;11.20;99.90;;;;;;5038470;28;20177;-67
2024/03/10 08:40:10;;;;;;;5.70;5.20;;;11.10;99.90;;;;;;5045396;28;20474;-66
2024/03/10 08:42:43;;;;;;;5.53;5.03;;;11.10;99.90;;;;;;5034103;28;20464;-67
2024/03/10 08:45:10;;;;;;;5.37;4.87;;;11.10;99.90;;;;;;5042772;28;20558;-67
2024/03/10 08:47:44;;;;;;;4.43;4.03;;;11.20;99.90;;;;;;5038761;28;20439;-67
2024/03/10 08:50:11;;;;;;;4.43;4.13;;;11.30;99.90;;;;;;5042042;28;20443;-66
2024/03/10 08:52:38;;;;;;;4.77;4.30;;;11.40;99.90;;;;;;5032847;28;20471;-67
2024/03/10 08:55:05;;;;;;;4.80;4.30;;;11.30;99.90;;;;;;5034567;28;20917;-67
2024/03/10 08:57:32;;;;;;;5.00;4.70;;;11.20;99.90;;;;;;5033848;28;20913;-67
2024/03/10 08:59:58;;;;;;;4.27;3.97;;;11.20;99.90;;;;;;5033820;28;20440;-67
2024/03/10 09:02:23;;;;;;;5.10;4.60;;;11.10;99.90;;;;;;5046620;28;20479;-66
2024/03/10 09:04:49;;;;;;;5.97;4.43;;;11.20;99.90;;;;;;5048943;28;20171;-67
2024/03/10 09:07:15;;;;;;;4.80;4.40;;;11.40;99.90;;;;;;5041878;28;20265;-67
2024/03/10 09:09:40;;;;;;;7.40;5.20;;;11.30;99.90;;;;;;5039357;28;20663;-67
2024/03/10 09:12:06;;;;;;;4.07;3.67;;;11.50;99.90;;;;;;5045854;28;20209;-67
2024/03/10 09:14:32;;;;;;;4.60;4.20;;;11.90;99.90;;;;;;5050091;28;20272;-67
2024/03/10 09:17:00;;;;;;;4.73;4.33;;;12.30;99.90;;;;;;5043211;28;20467;-67
2024/03/10 09:19:25;;;;;;;4.90;4.50;;;12.80;99.90;;;;;;5042370;28;20956;-67
2024/03/10 09:21:51;;;;;;;6.00;5.40;;;13.20;99.90;;;;;;5037671;28;20503;-67
2024/03/10 09:24:16;;;;;;;6.80;4.57;;;13.50;99.90;;;;;;5034213;28;20182;-67
2024/03/10 09:26:42;;;;;;;4.43;4.03;;;13.80;99.20;;;;;;5039211;28;20732;-66
2024/03/10 09:29:07;;;;;;;4.33;4.03;;;14.20;97.80;;;;;;5035514;28;20300;-67
2024/03/10 09:31:34;;;;;;;4.80;4.50;;;14.50;97.10;;;;;;5033891;28;20309;-67
2024/03/10 09:33:59;;;;;;;6.47;4.57;;;15.00;95.20;;;;;;5042036;28;20655;-68
2024/03/10 09:36:25;;;;;;;4.60;4.20;;;15.30;93.80;;;;;;5039927;28;20441;-67
2024/03/10 09:38:52;;;;;;;5.47;4.40;;;15.10;91.80;;;;;;5040639;28;20679;-67
2024/03/10 09:41:18;;;;;;;5.03;4.53;;;15.00;92.80;;;;;;5036426;28;20444;-67
2024/03/10 09:43:52;;;;;;;5.17;4.67;;;14.60;92.70;;;;;;5038437;28;20448;-68
2024/03/10 09:46:18;;;;;;;4.03;3.60;;;14.10;94.20;;;;;;5033441;28;20428;-67
2024/03/10 09:48:45;;;;;;;4.57;4.27;;;13.80;95.00;;;;;;5032392;28;20451;-67
2024/03/10 09:51:14;;;;;;;3.87;3.43;;;13.50;94.90;;;;;;5035780;28;20628;-66
2024/03/10 09:53:43;;;;;;;4.50;4.10;;;13.30;95.30;;;;;;5045030;28;20436;-67
2024/03/10 09:56:12;;;;;;;4.27;3.80;;;13.10;95.00;;;;;;5051402;28;20523;-67
2024/03/10 09:58:53;;;;;;;3.80;3.50;;;13.10;95.90;;;;;;5038364;28;20442;-67
2024/03/10 10:01:18;;;;;;;4.03;3.63;;;13.10;95.70;;;;;;5034492;28;20509;-67
2024/03/10 10:03:52;;;;;;;4.00;3.50;;;13.10;95.90;;;;;;5037363;28;20461;-67
2024/03/10 10:06:20;;;;;;;7.03;6.40;;;13.10;96.10;;;;;;5041136;28;20654;-67
2024/03/10 10:08:53;;;;;;;4.57;4.20;;;13.00;96.90;;;;;;5032667;28;20419;-67
2024/03/10 10:11:19;;;;;;;5.57;5.07;;;12.90;96.10;;;;;;5034160;28;20808;-67
2024/03/10 10:14:06;;;;;;;3.77;3.37;;;12.70;96.60;;;;;;5048032;28;20443;-67
2024/03/10 10:16:31;;;;;;;4.20;3.77;;;12.60;96.70;;;;;;5048082;28;20200;-67
2024/03/10 10:18:57;;;;;;;4.13;3.83;;;12.80;96.60;;;;;;5044540;28;20448;-67
2024/03/10 10:21:24;;;;;;;4.60;4.20;;;12.90;96.70;;;;;;5046228;28;20205;-67
2024/03/10 10:23:51;;;;;;;4.50;4.17;;;13.00;96.30;;;;;;5043228;28;20224;-67
2024/03/10 10:26:17;;;;;;;5.07;3.90;;;13.10;95.40;;;;;;5031462;28;20417;-67
2024/03/10 10:28:42;;;;;;;3.47;3.10;;;13.00;94.90;;;;;;5031256;28;20460;-67
2024/03/10 10:31:10;;;;;;;3.83;3.50;;;13.10;94.90;;;;;;5032661;28;20440;-67
2024/03/10 10:33:38;;;;;;;3.33;3.13;;;13.10;94.60;;;;;;5042695;28;20197;-66
2024/03/10 10:36:07;;;;;;;4.40;3.30;;;13.00;95.30;;;;;;5042387;28;20523;-66
2024/03/10 10:38:41;;;;;;;4.37;3.97;;;13.00;95.50;;;;;;5042924;28;20423;-67
2024/03/10 10:41:07;;;;;;;5.10;3.50;;;13.10;95.30;;;;;;5045030;28;20999;-67
2024/03/10 10:43:39;;;;;;;3.33;3.03;;;13.10;95.20;;;;;;5044352;28;20829;-66
2024/03/10 10:46:05;;;;;;;3.40;3.07;;;13.10;95.10;;;;;;5051258;28;20431;-67
2024/03/10 10:48:35;;;;;;;3.40;3.20;;;13.00;95.40;;;;;;5027343;28;20494;-66
2024/03/10 10:51:00;;;;;;;3.63;3.33;;;13.10;95.70;;;;;;5028691;28;20424;-67
2024/03/10 10:53:27;;;;;;;3.73;3.43;;;13.20;95.40;;;;;;5031568;28;20448;-67
2024/03/10 10:55:53;;;;;;;3.97;3.67;;;13.30;94.20;;;;;;5039117;28;20189;-67
2024/03/10 10:58:21;;;;;;;3.10;2.90;;;13.30;94.40;;;;;;5049194;28;20503;-66
2024/03/10 11:00:49;;;;;;;5.17;3.40;;;13.40;94.50;;;;;;5034070;28;20313;-67
2024/03/10 11:03:24;;;;;;;3.90;3.50;;;13.60;94.40;;;;;;5038789;28;20456;-66
2024/03/10 11:06:02;;;;;;;3.20;2.87;;;13.70;93.70;;;;;;5043009;28;21091;-67
2024/03/10 11:08:35;;;;;;;3.43;3.03;;;13.80;93.60;;;;;;5026279;28;20459;-67
2024/03/10 11:11:02;;;;;;;4.30;3.63;;;13.70;93.20;;;;;;5041766;28;20432;-67
2024/03/10 11:13:28;;;;;;;3.83;3.53;;;13.80;93.30;;;;;;5031260;28;20451;-67
2024/03/10 11:16:02;;;;;;;4.67;4.13;;;13.90;92.90;;;;;;5030505;28;20440;-67
2024/03/10 11:18:29;;;;;;;3.47;3.17;;;13.90;93.00;;;;;;5030188;28;20552;-67
2024/03/10 11:20:56;;;;;;;4.63;3.50;;;13.80;93.10;;;;;;5032710;28;20948;-67
2024/03/10 11:23:38;;;;;;;4.23;3.30;;;13.80;93.50;;;;;;5026951;28;217116;-67
2024/03/10 11:26:09;;;;;;;3.20;3.00;;;14.00;93.00;;;;;;5051577;28;20281;-67
2024/03/10 11:28:49;;;;;;;3.40;3.20;;;14.20;92.80;;;;;;5035745;28;20500;-67
2024/03/10 11:31:25;;;;;;;3.83;3.40;;;14.60;92.50;;;;;;5042318;28;20507;-67
2024/03/10 11:33:52;;;;;;;5.27;4.37;;;14.70;91.60;;;;;;5037714;28;20444;-67
2024/03/10 11:36:22;;;;;;;4.40;4.00;;;14.60;91.60;;;;;;5051108;28;20806;-67
2024/03/10 11:38:48;;;;;;;5.00;4.60;;;14.60;91.80;;;;;;5051480;28;20415;-67
2024/03/10 11:41:14;;;;;;;5.93;5.53;;;14.50;92.30;;;;;;5051634;28;20482;-67
2024/03/10 11:43:42;;;;;;;4.20;3.80;;;14.40;92.10;;;;;;5051719;28;20481;-67
2024/03/10 11:46:15;;;;;;;3.80;3.30;;;14.20;92.20;;;;;;5038471;28;20456;-67
2024/03/10 11:48:40;;;;;;;3.67;3.30;;;14.20;92.10;;;;;;5041026;28;20443;-67
2024/03/10 11:51:09;;;;;;;5.20;4.70;;;14.00;92.20;;;;;;5043321;28;20428;-67
2024/03/10 11:53:35;;;;;;;4.37;3.97;;;13.90;92.90;;;;;;5051535;28;20205;-67
2024/03/10 11:56:03;;;;;;;4.60;4.20;;;13.90;93.00;;;;;;5036343;28;20820;-67
2024/03/10 11:58:29;;;;;;;4.13;3.83;;;13.80;93.00;;;;;;5033450;28;20444;-67
2024/03/10 12:00:54;;;;;;;3.40;3.10;;;13.80;93.30;;;;;;5042508;28;20471;-67
2024/03/10 12:03:21;;;;;;;3.93;3.60;;;14.10;93.20;;;;;;5031830;28;20544;-67
2024/03/10 12:05:47;;;;;;;3.80;3.50;;;14.30;92.40;;;;;;5046950;28;20263;-67
2024/03/10 12:08:13;;;;;;;4.13;3.73;;;14.40;92.20;;;;;;5046835;28;20949;-67
2024/03/10 12:10:39;;;;;;;4.93;4.43;;;14.40;92.20;;;;;;5051547;28;20420;-67
2024/03/10 12:13:06;;;;;;;5.27;4.27;;;14.50;92.40;;;;;;5051390;28;20197;-67
2024/03/10 12:15:33;;;;;;;5.27;4.87;;;14.80;91.30;;;;;;5040556;28;20205;-67
2024/03/10 12:18:04;;;;;;;3.60;3.30;;;15.20;91.00;;;;;;5038773;28;20424;-67
2024/03/10 12:20:30;;;;;;;4.73;3.60;;;15.30;90.40;;;;;;5043543;28;20439;-67
2024/03/10 12:22:58;;;;;;;3.70;3.40;;;15.30;90.70;;;;;;5049557;28;20472;-67
2024/03/10 12:25:23;;;;;;;3.67;3.37;;;15.20;90.70;;;;;;5046783;28;20272;-67
2024/03/10 12:27:49;;;;;;;4.30;4.00;;;14.90;90.80;;;;;;5054360;28;20416;-67
2024/03/10 12:30:16;;;;;;;7.90;7.10;;;14.60;91.20;;;;;;5054958;28;20671;-67
2024/03/10 12:32:52;;;;;;;5.87;5.27;;;14.30;91.80;;;;;;5045182;28;20209;-67
2024/03/10 12:35:24;;;;;;;5.43;4.93;;;14.00;92.70;;;;;;5041530;28;20458;-67
2024/03/10 12:37:50;;;;;;;5.47;5.07;;;14.00;93.20;;;;;;5023164;28;20859;-67
2024/03/10 12:40:16;;;;;;;5.10;4.70;;;13.80;93.30;;;;;;5045944;28;20444;-67
2024/03/10 12:42:43;;;;;;;7.80;4.23;;;13.90;93.90;;;;;;5054693;28;20451;-67
2024/03/10 12:45:15;;;;;;;4.57;4.17;;;14.00;94.10;;;;;;5054775;28;20177;-66
2024/03/10 12:47:42;;;;;;;6.93;3.90;;;14.00;94.10;;;;;;5039830;28;20445;-66
2024/03/10 12:50:08;;;;;;;3.10;2.53;;;14.00;93.80;;;;;;5042918;28;20803;-67
2024/03/10 12:52:35;;;;;;;4.70;2.97;;;14.10;93.90;;;;;;5039095;28;20460;-67
2024/03/10 12:55:00;;;;;;;3.50;3.20;;;14.20;93.70;;;;;;5046196;28;20185;-67
2024/03/10 12:57:27;;;;;;;3.73;3.30;;;14.30;93.10;;;;;;5053620;28;20438;-67
2024/03/10 12:59:53;;;;;;;3.20;2.90;;;14.40;93.10;;;;;;5042564;28;20193;-67
2024/03/10 13:02:18;;;;;;;4.23;3.77;;;14.40;93.30;;;;;;5048598;28;20474;-67
2024/03/10 13:04:44;;;;;;;3.30;3.10;;;14.50;92.70;;;;;;5046080;28;20522;-67
2024/03/10 13:07:10;;;;;;;3.87;3.57;;;14.50;92.80;;;;;;5044641;28;20227;-67
2024/03/10 13:09:35;;;;;;;4.20;3.30;;;14.40;92.80;;;;;;5040043;28;20589;-67
2024/03/10 13:12:01;;;;;;;3.63;3.37;;;14.30;93.60;;;;;;5045735;28;20270;-66